KBFI/BFI METAR and TAF weather

Enter ICAO airport designator
Station Type Date Time Source
KBFI METAR 2020/09/20 13:53 UTC NOAA

KBFI 201353Z 14003KT 10SM FEW008 BKN030 OVC045 16/14 A3009 RMK AO2 SLP188 T01560139


Station Type Date Time Source
KBFI Decoded METAR 2020/09/20 13:53 UTC NOAA

SEATTLE BOEING FIELD, WA, United States (KBFI) 47-33N 122-19W 4M
Sep 20, 2020 - 09:53 AM EDT / 2020.09.20 1353 UTC
Wind: from the SE (140 degrees) at 3 MPH (3 KT):0
Visibility: 10 mile(s):0
Sky conditions: overcast
Temperature: 60.1 F (15.6 C)
Dew Point: 57.0 F (13.9 C)
Relative Humidity: 89%
Pressure (altimeter): 30.09 in. Hg (1018 hPa)
ob: KBFI 201353Z 14003KT 10SM FEW008 BKN030 OVC045 16/14 A3009 RMK AO2 SLP188 T01560139
cycle: 14

Station Type Date Time Source
KBFI TAF 2020/09/20 12:22 UTC NOAA

TAF KBFI 201120Z 2012/2112 00000KT P6SM VCSH SCT015 OVC030
TEMPO 2013/2017 5SM -SHRA BR BKN015
FM201700 19003KT P6SM OVC025
FM202100 24005KT P6SM BKN045
FM210400 31003KT P6SM SCT050 SCT200

Example: see airport list